createdAt,value
2023-07-15T00:01:48.531Z,94657.16
2023-07-15T00:04:16.821Z,94654.00
2023-07-15T00:06:43.454Z,94649.28
2023-07-15T00:09:10.750Z,94646.16
2023-07-15T00:11:39.041Z,94651.34
2023-07-15T00:14:11.911Z,94655.81
2023-07-15T00:16:38.626Z,94657.69
2023-07-15T00:19:07.020Z,94652.47
2023-07-15T00:21:35.239Z,94660.81
2023-07-15T00:24:03.135Z,94656.38
2023-07-15T00:26:31.208Z,94654.00
2023-07-15T00:28:58.356Z,94654.00
2023-07-15T00:31:25.926Z,94652.56
2023-07-15T00:33:53.058Z,94651.94
2023-07-15T00:36:19.752Z,94654.44
2023-07-15T00:38:49.591Z,94653.97
2023-07-15T00:41:18.436Z,94657.31
2023-07-15T00:43:59.361Z,94661.19
2023-07-15T00:46:47.037Z,94660.09
2023-07-15T00:49:16.906Z,94661.53
2023-07-15T00:51:45.164Z,94661.72
2023-07-15T00:54:14.460Z,94662.81
2023-07-15T00:56:42.311Z,94661.38
2023-07-15T00:59:11.020Z,94663.44
2023-07-15T01:01:37.862Z,94662.34
2023-07-15T01:04:05.505Z,94659.66
2023-07-15T01:06:36.784Z,94653.84
2023-07-15T01:09:05.748Z,94658.59
2023-07-15T01:11:32.343Z,94657.16
2023-07-15T01:14:00.040Z,94653.72
2023-07-15T01:16:29.439Z,94647.41
2023-07-15T01:18:56.482Z,94646.94
2023-07-15T01:21:26.749Z,94643.94
2023-07-15T01:23:55.643Z,94637.31
2023-07-15T01:26:23.144Z,94633.88
2023-07-15T01:28:51.330Z,94637.81
2023-07-15T01:31:18.630Z,94658.31
2023-07-15T01:33:45.346Z,94655.47
2023-07-15T01:36:12.193Z,94651.50
2023-07-15T01:38:39.016Z,94649.63
2023-07-15T01:41:07.108Z,94643.47
2023-07-15T01:43:33.989Z,94653.25
2023-07-15T01:46:01.123Z,94645.50
2023-07-15T01:48:27.744Z,94650.56
2023-07-15T01:50:54.344Z,94656.38
2023-07-15T01:53:20.957Z,94655.44
2023-07-15T01:55:47.553Z,94650.41
2023-07-15T01:58:15.858Z,94644.88
2023-07-15T02:00:42.504Z,94655.28
2023-07-15T02:03:09.359Z,94644.53
2023-07-15T02:05:36.173Z,94636.19
2023-07-15T02:08:02.891Z,94648.22
2023-07-15T02:10:30.762Z,94643.94
2023-07-15T02:12:57.371Z,94648.50
2023-07-15T02:15:25.657Z,94640.47
2023-07-15T02:17:52.480Z,94640.94
2023-07-15T02:20:20.441Z,94642.50
2023-07-15T02:22:47.278Z,94644.09
2023-07-15T02:25:14.162Z,94636.50
2023-07-15T02:27:40.838Z,94628.94
2023-07-15T02:30:10.216Z,94636.50
2023-07-15T02:32:40.700Z,94638.25
2023-07-15T02:35:09.860Z,94626.56
2023-07-15T02:37:36.915Z,94625.50
2023-07-15T02:40:05.536Z,94632.91
2023-07-15T02:42:34.433Z,94630.88
2023-07-15T02:45:02.266Z,94635.72
2023-07-15T02:47:29.170Z,94629.25
2023-07-15T02:49:57.985Z,94635.88
2023-07-15T02:52:24.745Z,94628.97
2023-07-15T02:54:51.310Z,94636.84
2023-07-15T02:57:18.304Z,94634.19
2023-07-15T02:59:44.954Z,94640.00
2023-07-15T03:02:12.859Z,94634.66
2023-07-15T03:04:39.557Z,94636.06
2023-07-15T03:07:09.264Z,94631.31
2023-07-15T03:09:36.780Z,94627.09
2023-07-15T03:12:03.561Z,94632.75
2023-07-15T03:14:30.150Z,94634.66
2023-07-15T03:16:56.993Z,94628.84
2023-07-15T03:19:23.621Z,94625.22
2023-07-15T03:21:50.250Z,94635.31
2023-07-15T03:24:18.222Z,94631.66
2023-07-15T03:26:45.811Z,94626.44
2023-07-15T03:29:12.501Z,94631.16
2023-07-15T03:31:41.174Z,94625.16
2023-07-15T03:34:07.802Z,94626.72
2023-07-15T03:36:34.708Z,94627.47
2023-07-15T03:39:01.541Z,94628.56
2023-07-15T03:41:29.518Z,94626.81
2023-07-15T03:43:56.719Z,94636.72
2023-07-15T03:46:23.401Z,94636.41
2023-07-15T03:48:50.133Z,94633.28
2023-07-15T03:51:16.668Z,94631.81
2023-07-15T03:53:43.242Z,94631.16
2023-07-15T03:56:09.958Z,94639.03
2023-07-15T03:58:38.112Z,94641.22
2023-07-15T04:01:04.979Z,94640.44
2023-07-15T04:03:32.061Z,94641.22
2023-07-15T04:05:58.742Z,94644.53
2023-07-15T04:08:25.303Z,94642.47
2023-07-15T04:10:51.990Z,94643.09
2023-07-15T04:13:19.028Z,94643.09
2023-07-15T04:15:46.997Z,94638.38
2023-07-15T04:18:13.837Z,94650.03
2023-07-15T04:20:40.515Z,94641.88
2023-07-15T04:23:07.149Z,94640.94
2023-07-15T04:25:34.182Z,94638.13
2023-07-15T04:28:01.052Z,94639.56
2023-07-15T04:30:27.721Z,94638.78
2023-07-15T04:32:55.678Z,94637.25
2023-07-15T04:35:22.674Z,94632.53
2023-07-15T04:37:49.430Z,94635.53
2023-07-15T04:40:16.142Z,94632.41
2023-07-15T04:42:45.455Z,94639.69
2023-07-15T04:45:13.278Z,94633.56
2023-07-15T04:47:40.547Z,94634.66
2023-07-15T04:50:09.170Z,94629.94
2023-07-15T04:52:35.740Z,94634.22
2023-07-15T04:55:02.442Z,94636.53
2023-07-15T04:57:29.071Z,94631.97
2023-07-15T04:59:55.841Z,94631.66
2023-07-15T05:02:22.872Z,94637.00
2023-07-15T05:04:49.541Z,94633.50
2023-07-15T05:07:17.508Z,94632.69
2023-07-15T05:09:44.099Z,94638.41
2023-07-15T05:12:11.517Z,94637.94
2023-07-15T05:14:38.193Z,94634.44
2023-07-15T05:17:06.355Z,94631.56
2023-07-15T05:19:33.323Z,94636.44
2023-07-15T05:21:59.896Z,94625.88
2023-07-15T05:24:29.972Z,94628.03
2023-07-15T05:26:56.696Z,94632.09
2023-07-15T05:29:24.150Z,94635.06
2023-07-15T05:31:51.399Z,94634.25
2023-07-15T05:34:18.097Z,94634.00
2023-07-15T05:36:44.651Z,94631.47
2023-07-15T05:39:12.600Z,94631.41
2023-07-15T05:41:40.532Z,94633.72
2023-07-15T05:44:07.566Z,94637.13
2023-07-15T05:46:34.289Z,94635.50
2023-07-15T05:49:01.344Z,94628.50
2023-07-15T05:51:28.259Z,94635.03
2023-07-15T05:53:54.855Z,94628.50
2023-07-15T05:56:21.501Z,94627.63
2023-07-15T05:58:50.125Z,94628.34
2023-07-15T06:01:17.082Z,94633.31
2023-07-15T06:03:44.106Z,94633.22
2023-07-15T06:06:10.806Z,94625.41
2023-07-15T06:08:37.412Z,94631.63
2023-07-15T06:11:05.010Z,94625.03
2023-07-15T06:13:31.727Z,94617.31
2023-07-15T06:15:59.773Z,94617.69
2023-07-15T06:18:26.531Z,94621.28
2023-07-15T06:20:53.192Z,94621.41
2023-07-15T06:23:19.855Z,94614.44
2023-07-15T06:25:46.417Z,94614.91
2023-07-15T06:28:12.977Z,94599.09
2023-07-15T06:30:39.643Z,94602.88
2023-07-15T06:33:07.673Z,94595.56
2023-07-15T06:35:34.299Z,94594.44
2023-07-15T06:38:01.165Z,94595.38
2023-07-15T06:40:28.427Z,94583.34
2023-07-15T06:42:55.075Z,94582.16
2023-07-15T06:45:23.090Z,94582.72
2023-07-15T06:47:49.868Z,94576.00
2023-07-15T06:50:17.862Z,94573.06
2023-07-15T06:52:46.154Z,94564.69
2023-07-15T06:55:12.893Z,94574.03
2023-07-15T06:57:39.944Z,94563.97
2023-07-15T07:00:07.456Z,94561.66
2023-07-15T07:02:34.197Z,94568.13
2023-07-15T07:05:01.199Z,94563.41
2023-07-15T07:07:29.433Z,94560.56
2023-07-15T07:09:56.398Z,94562.81
2023-07-15T07:12:26.216Z,94552.72
2023-07-15T07:14:52.904Z,94556.44
2023-07-15T07:17:19.694Z,94553.53
2023-07-15T07:19:47.900Z,94547.13
2023-07-15T07:22:14.877Z,94551.97
2023-07-15T07:24:43.423Z,94551.44
2023-07-15T07:27:10.321Z,94548.16
2023-07-15T07:29:36.998Z,94543.78
2023-07-15T07:32:04.513Z,94539.72
2023-07-15T07:34:31.197Z,94541.06
2023-07-15T07:36:57.873Z,94534.25
2023-07-15T07:39:24.523Z,94541.41
2023-07-15T07:41:52.952Z,94549.44
2023-07-15T07:44:19.822Z,94547.34
2023-07-15T07:46:46.455Z,94535.06
2023-07-15T07:49:13.079Z,94535.19
2023-07-15T07:51:40.022Z,94536.88
2023-07-15T07:54:06.674Z,94536.97
2023-07-15T07:56:33.384Z,94534.72
2023-07-15T07:59:05.155Z,94527.03
2023-07-15T08:01:32.798Z,94523.63
2023-07-15T08:03:59.840Z,94524.84
2023-07-15T08:06:26.700Z,94521.81
2023-07-15T08:08:54.362Z,94522.34
2023-07-15T08:11:21.453Z,94517.72
2023-07-15T08:13:48.035Z,94522.78
2023-07-15T08:16:33.468Z,94513.56
2023-07-15T08:19:00.558Z,94504.72
2023-07-15T08:21:27.693Z,94511.81
2023-07-15T08:23:55.031Z,94513.44
2023-07-15T08:26:22.290Z,94510.00
2023-07-15T08:28:49.013Z,94512.41
2023-07-15T08:31:16.234Z,94512.03
2023-07-15T08:33:44.784Z,94514.00
2023-07-15T08:36:11.608Z,94525.69
2023-07-15T08:38:38.221Z,94518.69
2023-07-15T08:41:04.825Z,94511.69
2023-07-15T08:43:32.163Z,94505.50
2023-07-15T08:46:00.547Z,94509.78
2023-07-15T08:48:27.508Z,94505.47
2023-07-15T08:50:57.376Z,94502.75
2023-07-15T08:53:26.002Z,94501.59
2023-07-15T08:55:55.326Z,94506.63
2023-07-15T08:58:22.468Z,94504.63
2023-07-15T09:00:50.001Z,94502.25
2023-07-15T09:03:17.041Z,94501.03
2023-07-15T09:05:45.617Z,94497.91
2023-07-15T09:08:14.820Z,94491.66
2023-07-15T09:10:50.778Z,94495.44
2023-07-15T09:13:22.211Z,94491.06
2023-07-15T09:15:49.837Z,94488.69
2023-07-15T09:18:16.584Z,94484.38
2023-07-15T09:20:43.335Z,94485.06
2023-07-15T09:23:10.356Z,94485.84
2023-07-15T09:25:38.934Z,94478.66
2023-07-15T09:28:09.140Z,94485.22
2023-07-15T09:30:39.473Z,94478.16
2023-07-15T09:33:06.431Z,94471.44
2023-07-15T09:35:37.679Z,94473.31
2023-07-15T09:38:09.861Z,94469.25
2023-07-15T09:40:43.137Z,94467.47
2023-07-15T09:43:09.893Z,94469.41
2023-07-15T09:45:37.415Z,94467.41
2023-07-15T09:48:05.728Z,94472.34
2023-07-15T09:50:32.880Z,94456.03
2023-07-15T09:53:00.866Z,94455.44
2023-07-15T09:55:28.283Z,94445.09
2023-07-15T09:57:57.894Z,94448.56
2023-07-15T10:00:28.281Z,94448.50
2023-07-15T10:02:57.430Z,94455.31
2023-07-15T10:05:25.737Z,94450.31
2023-07-15T10:07:52.708Z,94450.28
2023-07-15T10:10:20.265Z,94450.81
2023-07-15T10:12:47.634Z,94439.94
2023-07-15T10:15:16.741Z,94441.25
2023-07-15T10:17:46.049Z,94436.44
2023-07-15T10:20:12.908Z,94440.31
2023-07-15T10:22:40.399Z,94437.75
2023-07-15T10:25:11.671Z,94437.66
2023-07-15T10:27:38.902Z,94425.94
2023-07-15T10:30:18.042Z,94422.81
2023-07-15T10:33:07.052Z,94427.19
2023-07-15T10:35:34.265Z,94419.59
2023-07-15T10:38:03.747Z,94416.22
2023-07-15T10:40:49.280Z,94419.47
2023-07-15T10:43:17.565Z,94419.44
2023-07-15T10:45:48.319Z,94423.06
2023-07-15T10:48:15.032Z,94411.44
2023-07-15T10:50:42.001Z,94407.66
2023-07-15T10:53:22.524Z,94408.69
2023-07-15T10:55:56.303Z,94407.31
2023-07-15T10:58:22.892Z,94398.47
2023-07-15T11:00:50.972Z,94397.03
2023-07-15T11:03:18.045Z,94391.56
2023-07-15T11:05:44.579Z,94390.66
2023-07-15T11:08:11.320Z,94391.91
2023-07-15T11:10:37.879Z,94378.53
2023-07-15T11:13:14.043Z,94380.03
2023-07-15T11:15:40.749Z,94376.81
2023-07-15T11:18:14.482Z,94376.38
2023-07-15T11:20:41.124Z,94365.91
2023-07-15T11:23:07.991Z,94366.69
2023-07-15T11:25:34.684Z,94355.81
2023-07-15T11:28:01.396Z,94348.47
2023-07-15T11:30:34.069Z,94351.81
2023-07-15T11:33:00.677Z,94343.50
2023-07-15T11:35:30.408Z,94339.97
2023-07-15T11:37:56.963Z,94333.72
2023-07-15T11:40:23.600Z,94339.47
2023-07-15T11:42:50.468Z,94333.75
2023-07-15T11:45:17.217Z,94331.72
2023-07-15T11:47:45.535Z,94331.19
2023-07-15T11:50:12.282Z,94325.53
2023-07-15T11:52:43.902Z,94319.78
2023-07-15T11:55:10.583Z,94314.34
2023-07-15T11:57:42.304Z,94311.50
2023-07-15T12:00:10.264Z,94311.06
2023-07-15T12:02:38.580Z,94300.09
2023-07-15T12:05:06.064Z,94298.09
2023-07-15T12:07:33.184Z,94292.00
2023-07-15T12:10:07.940Z,94285.22
2023-07-15T12:12:34.528Z,94274.53
2023-07-15T21:48:50.520Z,94327.03
2023-07-15T21:51:17.105Z,94331.47
